createdAt,value
2018-07-26T00:01:33.806Z,23.16
2018-07-26T00:04:00.572Z,23.18
2018-07-26T00:06:27.324Z,23.27
2018-07-26T00:08:54.099Z,23.32
2018-07-26T00:11:20.868Z,23.41
2018-07-26T00:13:47.623Z,23.44
2018-07-26T00:16:14.368Z,23.40
2018-07-26T00:18:41.138Z,23.31
2018-07-26T00:21:07.902Z,23.34
2018-07-26T00:23:34.635Z,23.24
2018-07-26T00:26:01.955Z,23.20
2018-07-26T00:28:28.741Z,23.15
2018-07-26T00:30:55.496Z,23.08
2018-07-26T00:33:22.224Z,23.03
2018-07-26T00:35:48.975Z,23.03
2018-07-26T00:38:15.718Z,23.06
2018-07-26T00:40:43.146Z,22.99
2018-07-26T00:43:09.871Z,22.96
2018-07-26T00:45:36.655Z,22.95
2018-07-26T00:48:03.525Z,22.90
2018-07-26T00:50:30.304Z,22.79
2018-07-26T00:52:57.024Z,22.77
2018-07-26T00:55:23.791Z,22.73
2018-07-26T00:57:50.523Z,22.62
2018-07-26T01:00:17.299Z,22.59
2018-07-26T01:02:44.056Z,22.69
2018-07-26T01:05:10.796Z,22.81
2018-07-26T01:07:37.559Z,22.85
2018-07-26T01:10:05.539Z,22.90
2018-07-26T01:12:32.313Z,22.90
2018-07-26T01:14:59.060Z,22.83
2018-07-26T01:17:25.812Z,22.76
2018-07-26T01:19:52.576Z,22.62
2018-07-26T01:22:19.346Z,22.55
2018-07-26T01:24:46.096Z,22.38
2018-07-26T01:27:12.891Z,22.27
2018-07-26T01:29:39.660Z,22.38
2018-07-26T01:32:06.435Z,22.41
2018-07-26T01:34:33.170Z,22.44
2018-07-26T01:36:59.936Z,22.50
2018-07-26T01:39:26.679Z,22.56
2018-07-26T01:41:53.483Z,22.50
2018-07-26T01:44:21.892Z,22.47
2018-07-26T01:46:48.651Z,22.48
2018-07-26T01:49:15.473Z,22.40
2018-07-26T01:51:42.211Z,22.47
2018-07-26T01:54:08.990Z,22.40
2018-07-26T01:56:35.718Z,22.39
2018-07-26T01:59:03.095Z,22.32
2018-07-26T02:01:29.892Z,22.23
2018-07-26T02:03:56.671Z,22.18
2018-07-26T02:06:23.415Z,22.16
2018-07-26T02:08:50.167Z,22.25
2018-07-26T02:11:16.911Z,22.36
2018-07-26T02:13:43.689Z,22.42
2018-07-26T02:16:10.424Z,22.38
2018-07-26T02:18:37.204Z,22.30
2018-07-26T02:21:03.962Z,22.33
2018-07-26T02:23:30.829Z,22.36
2018-07-26T02:25:57.564Z,22.43
2018-07-26T02:28:24.777Z,22.54
2018-07-26T02:30:51.568Z,22.50
2018-07-26T02:33:18.229Z,22.56
2018-07-26T02:35:45.036Z,22.54
2018-07-26T02:38:11.792Z,22.47
2018-07-26T02:40:38.672Z,22.26
2018-07-26T02:43:05.912Z,22.14
2018-07-26T02:45:32.773Z,22.01
2018-07-26T02:47:59.565Z,21.88
2018-07-26T02:50:26.342Z,21.87
2018-07-26T02:52:53.127Z,21.78
2018-07-26T02:55:19.895Z,21.70
2018-07-26T02:57:46.646Z,21.70
2018-07-26T03:00:13.420Z,21.73
2018-07-26T03:02:40.149Z,21.79
2018-07-26T03:05:07.727Z,21.96
2018-07-26T03:07:34.471Z,22.03
2018-07-26T03:10:01.976Z,21.98
2018-07-26T03:12:28.796Z,21.94
2018-07-26T03:14:55.835Z,21.86
2018-07-26T03:17:22.573Z,21.95
2018-07-26T03:19:49.339Z,21.97
2018-07-26T03:22:16.102Z,21.97
2018-07-26T03:24:42.932Z,21.75
2018-07-26T03:27:09.738Z,21.72
2018-07-26T03:29:36.743Z,21.54
2018-07-26T03:32:03.567Z,21.55
2018-07-26T03:34:30.313Z,21.57
2018-07-26T03:36:57.076Z,21.68
2018-07-26T03:39:23.811Z,21.86
2018-07-26T03:41:50.607Z,21.84
2018-07-26T03:44:17.354Z,21.86
2018-07-26T03:46:44.384Z,21.73
2018-07-26T03:49:11.243Z,21.73
2018-07-26T03:51:38.011Z,21.73
2018-07-26T03:54:05.004Z,21.87
2018-07-26T03:56:31.819Z,22.00
2018-07-26T03:58:58.559Z,21.97
2018-07-26T04:01:25.288Z,22.00
2018-07-26T04:03:52.076Z,22.04
2018-07-26T04:06:18.859Z,22.06
2018-07-26T04:08:45.622Z,22.15
2018-07-26T04:11:12.371Z,22.22
2018-07-26T04:13:39.157Z,22.28
2018-07-26T04:16:05.904Z,22.25
2018-07-26T04:18:32.763Z,22.37
2018-07-26T04:20:59.539Z,22.40
2018-07-26T04:23:26.309Z,22.26
2018-07-26T04:25:53.107Z,22.35
2018-07-26T04:28:19.908Z,22.40
2018-07-26T04:30:46.647Z,22.47
2018-07-26T04:33:13.412Z,22.40
2018-07-26T04:35:40.153Z,22.49
2018-07-26T04:38:06.931Z,22.44
2018-07-26T04:40:34.109Z,22.39
2018-07-26T04:43:00.884Z,22.37
2018-07-26T04:45:27.635Z,22.33
2018-07-26T04:47:54.353Z,22.20
2018-07-26T04:50:21.151Z,22.03
2018-07-26T04:52:47.960Z,22.18
2018-07-26T04:55:14.643Z,22.27
2018-07-26T04:57:41.387Z,22.17
2018-07-26T05:00:08.228Z,22.16
2018-07-26T05:02:35.198Z,22.32
2018-07-26T05:05:02.711Z,22.46
2018-07-26T05:07:29.455Z,22.49
2018-07-26T05:09:56.244Z,22.40
2018-07-26T05:12:23.014Z,22.40
2018-07-26T05:14:49.815Z,22.57
2018-07-26T05:17:16.527Z,22.70
2018-07-26T05:19:43.633Z,22.74
2018-07-26T05:22:10.435Z,22.76
2018-07-26T05:24:37.979Z,22.82
2018-07-26T05:27:04.844Z,22.88
2018-07-26T05:29:31.654Z,22.88
2018-07-26T05:31:58.380Z,22.90
2018-07-26T05:34:25.138Z,23.00
2018-07-26T05:36:51.903Z,23.04
2018-07-26T05:39:18.631Z,23.16
2018-07-26T05:41:45.401Z,23.19
2018-07-26T05:44:12.123Z,23.29
2018-07-26T05:46:38.987Z,23.40
2018-07-26T05:49:05.773Z,23.46
2018-07-26T05:51:32.591Z,23.46
2018-07-26T05:53:59.363Z,23.58
2018-07-26T05:56:26.131Z,23.68
2018-07-26T05:58:52.880Z,23.79
2018-07-26T06:01:19.701Z,23.92
2018-07-26T06:03:46.447Z,24.03
2018-07-26T06:06:13.219Z,23.96
2018-07-26T06:08:39.960Z,23.87
2018-07-26T06:11:06.759Z,23.87
2018-07-26T06:13:33.546Z,24.07
2018-07-26T06:16:00.294Z,24.23
2018-07-26T06:18:27.336Z,24.37
2018-07-26T06:20:54.107Z,24.51
2018-07-26T06:23:20.867Z,24.60
2018-07-26T06:25:47.604Z,24.70
2018-07-26T06:28:14.398Z,24.81
2018-07-26T06:30:41.126Z,24.89
2018-07-26T06:33:07.893Z,24.94
2018-07-26T06:35:34.624Z,24.93
2018-07-26T06:38:01.938Z,24.92
2018-07-26T06:40:28.698Z,25.01
2018-07-26T06:42:55.469Z,25.09
2018-07-26T06:45:22.180Z,25.16
2018-07-26T06:47:49.002Z,25.22
2018-07-26T06:50:15.727Z,25.29
2018-07-26T06:52:42.511Z,25.26
2018-07-26T06:55:09.704Z,25.35
2018-07-26T06:57:36.547Z,25.44
2018-07-26T07:00:05.312Z,25.41
2018-07-26T07:02:33.192Z,25.30
2018-07-26T07:04:59.955Z,25.45
2018-07-26T07:07:26.671Z,25.63
2018-07-26T07:09:53.432Z,25.78
2018-07-26T07:12:20.454Z,25.90
2018-07-26T07:14:47.192Z,26.01
2018-07-26T07:17:13.923Z,26.13
2018-07-26T07:19:40.759Z,26.16
2018-07-26T07:22:07.591Z,26.14
2018-07-26T07:24:34.355Z,26.24
2018-07-26T07:27:02.277Z,26.34
2018-07-26T07:29:29.109Z,26.41
2018-07-26T07:31:55.923Z,26.50
2018-07-26T07:34:22.688Z,26.52
2018-07-26T07:36:49.508Z,26.45
2018-07-26T07:39:16.254Z,26.54
2018-07-26T07:41:43.067Z,26.52
2018-07-26T07:44:10.226Z,26.57
2018-07-26T07:46:37.477Z,26.60
2018-07-26T07:49:04.185Z,26.63
2018-07-26T07:51:31.307Z,26.64
2018-07-26T07:53:58.063Z,26.44
2018-07-26T07:56:24.845Z,26.54
2018-07-26T07:58:51.623Z,26.68
2018-07-26T08:01:18.388Z,26.72
2018-07-26T08:03:45.148Z,26.80
2018-07-26T08:06:11.976Z,26.93
2018-07-26T08:08:38.711Z,27.06
2018-07-26T08:11:05.488Z,27.07
2018-07-26T08:13:32.259Z,27.20
2018-07-26T08:15:59.018Z,27.07
2018-07-26T08:18:25.735Z,27.08
2018-07-26T08:20:52.503Z,27.07
2018-07-26T08:23:19.255Z,27.03
2018-07-26T08:25:46.045Z,27.13
2018-07-26T08:28:12.788Z,27.19
2018-07-26T08:30:39.562Z,27.33
2018-07-26T08:33:06.329Z,27.54
2018-07-26T08:35:33.068Z,27.56
2018-07-26T08:37:59.835Z,27.51
2018-07-26T08:40:26.595Z,27.63
2018-07-26T08:42:53.383Z,27.60
2018-07-26T08:45:20.131Z,27.67
2018-07-26T08:47:46.894Z,27.80
2018-07-26T08:50:13.683Z,27.75
2018-07-26T08:52:40.447Z,27.77
2018-07-26T08:55:07.227Z,27.73
2018-07-26T08:57:34.080Z,27.69
2018-07-26T09:00:00.897Z,27.79
2018-07-26T09:02:27.692Z,27.79
2018-07-26T09:04:54.448Z,27.85
2018-07-26T09:07:21.235Z,27.81
2018-07-26T09:09:48.036Z,27.68
2018-07-26T09:12:14.732Z,27.70
2018-07-26T09:14:41.523Z,27.80
2018-07-26T09:17:08.304Z,27.77
2018-07-26T09:19:35.071Z,27.83
2018-07-26T09:22:02.484Z,27.95
2018-07-26T09:24:29.353Z,27.84
2018-07-26T09:26:56.039Z,27.91
2018-07-26T09:29:22.846Z,27.93
2018-07-26T09:31:49.588Z,27.96
2018-07-26T09:34:16.405Z,27.95
2018-07-26T09:36:43.171Z,28.01
2018-07-26T09:39:12.237Z,27.93
2018-07-26T09:41:38.967Z,27.91
2018-07-26T09:44:05.799Z,28.01
2018-07-26T09:46:32.563Z,27.93
2018-07-26T09:48:59.327Z,28.03
2018-07-26T09:51:26.093Z,28.09
2018-07-26T09:53:52.828Z,28.23
2018-07-26T09:56:19.597Z,28.26
2018-07-26T09:58:46.429Z,28.32
2018-07-26T10:01:19.075Z,28.33
2018-07-26T10:03:45.852Z,28.39
2018-07-26T10:06:12.668Z,28.42
2018-07-26T10:08:39.606Z,28.34
2018-07-26T10:11:06.451Z,28.38
2018-07-26T10:13:33.203Z,28.44
2018-07-26T10:16:00.027Z,28.36
2018-07-26T10:18:26.688Z,28.40
2018-07-26T10:20:53.460Z,28.34
2018-07-26T10:23:20.188Z,28.36
2018-07-26T10:25:47.019Z,28.38
2018-07-26T10:28:13.766Z,28.39
2018-07-26T10:30:40.609Z,28.34
2018-07-26T10:33:07.336Z,28.33
2018-07-26T10:35:34.131Z,28.46
2018-07-26T10:38:01.488Z,28.52
2018-07-26T10:40:28.441Z,28.51
2018-07-26T10:42:55.200Z,28.39
2018-07-26T10:45:21.949Z,28.37
2018-07-26T10:47:48.735Z,28.38
2018-07-26T10:50:15.671Z,28.29
2018-07-26T10:52:42.400Z,28.40
2018-07-26T10:55:09.131Z,28.49
2018-07-26T10:57:37.096Z,28.56
2018-07-26T11:00:04.860Z,28.61
2018-07-26T11:02:31.652Z,28.59
2018-07-26T11:04:58.390Z,28.57
2018-07-26T11:07:25.219Z,28.63
2018-07-26T11:09:51.961Z,28.61
2018-07-26T11:12:19.607Z,28.65
2018-07-26T11:14:46.432Z,28.60
2018-07-26T11:17:13.192Z,28.59
2018-07-26T11:19:39.977Z,28.56
2018-07-26T11:22:06.775Z,28.52
2018-07-26T11:24:33.560Z,28.31
2018-07-26T11:27:00.352Z,28.29
2018-07-26T11:29:27.131Z,28.44
2018-07-26T11:31:53.949Z,28.43
2018-07-26T11:34:20.704Z,28.43
2018-07-26T11:36:47.460Z,28.40
2018-07-26T11:39:14.252Z,28.34
2018-07-26T11:41:40.978Z,28.37
2018-07-26T11:44:07.752Z,28.47
2018-07-26T11:46:34.502Z,28.50
2018-07-26T11:49:01.995Z,28.49
2018-07-26T11:51:28.727Z,28.48
2018-07-26T11:53:55.567Z,28.50
2018-07-26T11:56:22.337Z,28.45
2018-07-26T11:58:49.118Z,28.50
2018-07-26T12:01:15.840Z,28.54
2018-07-26T12:03:43.043Z,28.53
2018-07-26T12:06:09.775Z,28.52
2018-07-26T12:08:36.524Z,28.54
2018-07-26T12:11:03.575Z,28.50
2018-07-26T12:13:30.315Z,28.50
2018-07-26T12:15:57.132Z,28.58
2018-07-26T12:18:23.926Z,28.63
2018-07-26T12:20:50.736Z,28.65
2018-07-26T12:23:17.507Z,28.64
2018-07-26T12:25:44.296Z,28.66
2018-07-26T12:28:11.036Z,28.63
2018-07-26T12:30:37.885Z,28.72
2018-07-26T12:33:04.644Z,28.80
2018-07-26T12:35:31.463Z,28.89
2018-07-26T12:37:58.207Z,28.86
2018-07-26T12:40:25.022Z,28.81
2018-07-26T12:42:51.809Z,28.70
2018-07-26T12:45:18.772Z,28.76
2018-07-26T12:47:45.583Z,28.93
2018-07-26T12:50:12.307Z,29.01
2018-07-26T12:52:39.167Z,29.07
2018-07-26T12:55:05.915Z,29.15
2018-07-26T12:57:32.767Z,29.28
2018-07-26T12:59:59.687Z,29.34
2018-07-26T13:02:26.541Z,29.36
2018-07-26T13:04:53.269Z,29.24
2018-07-26T13:07:20.132Z,29.19
2018-07-26T13:09:46.948Z,29.28
2018-07-26T13:12:13.959Z,29.41
2018-07-26T13:14:40.988Z,29.50
2018-07-26T13:17:07.866Z,29.53
2018-07-26T13:19:34.686Z,29.66
2018-07-26T13:22:01.548Z,29.80
2018-07-26T13:24:28.583Z,29.84
2018-07-26T13:26:55.507Z,29.82
2018-07-26T13:29:22.466Z,29.86
2018-07-26T13:31:49.342Z,29.81
2018-07-26T13:34:16.158Z,29.89
2018-07-26T13:36:43.027Z,29.95
2018-07-26T13:39:11.951Z,29.95
2018-07-26T13:41:38.986Z,29.93
2018-07-26T13:44:05.919Z,30.13
2018-07-26T13:46:32.828Z,30.32
2018-07-26T13:48:59.783Z,30.36
2018-07-26T13:51:26.519Z,30.42
2018-07-26T13:53:53.459Z,30.24
2018-07-26T13:56:20.344Z,30.38
2018-07-26T13:58:47.104Z,30.36
2018-07-26T14:01:13.888Z,30.45
2018-07-26T14:03:40.732Z,30.52
2018-07-26T14:06:07.516Z,30.59
2018-07-26T14:08:34.337Z,30.62
2018-07-26T14:11:01.863Z,30.65
2018-07-26T14:13:28.668Z,30.69
2018-07-26T14:15:55.531Z,30.70
2018-07-26T14:18:22.188Z,30.71
2018-07-26T14:20:49.031Z,30.86
2018-07-26T14:23:21.466Z,30.93
2018-07-26T14:25:48.257Z,31.04
2018-07-26T14:28:15.132Z,31.15
2018-07-26T14:30:42.296Z,31.29
2018-07-26T14:33:09.044Z,31.37
2018-07-26T14:35:35.930Z,31.39
2018-07-26T14:38:02.828Z,31.45
2018-07-26T14:40:29.631Z,31.58
2018-07-26T14:42:56.404Z,31.69
2018-07-26T14:45:23.181Z,31.80
2018-07-26T14:47:51.744Z,32.01
2018-07-26T14:50:18.497Z,32.15
2018-07-26T14:52:45.731Z,32.20
2018-07-26T14:55:12.480Z,32.25
2018-07-26T14:57:39.233Z,32.29
2018-07-26T15:00:06.015Z,32.46
2018-07-26T15:02:32.796Z,32.55
2018-07-26T15:04:59.559Z,32.61
2018-07-26T15:07:26.360Z,32.72
2018-07-26T15:09:53.707Z,32.74
2018-07-26T15:12:20.512Z,32.89
2018-07-26T15:14:47.324Z,32.89
2018-07-26T15:17:14.089Z,33.00
2018-07-26T15:19:41.039Z,33.02
2018-07-26T15:22:07.900Z,33.19
2018-07-26T15:24:35.457Z,33.47
2018-07-26T15:27:02.233Z,33.60
2018-07-26T15:29:29.044Z,33.79
2018-07-26T15:31:55.831Z,33.78
2018-07-26T15:34:22.545Z,34.10
2018-07-26T15:36:49.312Z,34.27
2018-07-26T15:39:16.056Z,34.47
2018-07-26T15:41:44.049Z,34.56
2018-07-26T15:44:11.379Z,34.76
2018-07-26T15:46:38.347Z,34.97
2018-07-26T15:49:05.473Z,35.02
2018-07-26T15:51:32.307Z,35.04
2018-07-26T15:53:59.010Z,35.03
2018-07-26T15:56:25.767Z,35.29
2018-07-26T15:58:52.547Z,35.59
2018-07-26T16:01:19.307Z,35.97
2018-07-26T16:03:46.085Z,36.16
2018-07-26T16:06:12.814Z,36.31
2018-07-26T16:08:39.571Z,36.37
2018-07-26T16:11:06.384Z,36.69
2018-07-26T16:13:33.196Z,37.47
2018-07-26T16:15:59.991Z,38.26
2018-07-26T16:18:26.763Z,39.43
2018-07-26T16:20:53.732Z,40.28
2018-07-26T16:23:20.533Z,41.11
2018-07-26T16:25:47.280Z,42.37
2018-07-26T16:28:14.068Z,42.34
2018-07-26T16:30:42.186Z,42.30
2018-07-26T16:33:08.849Z,42.75
2018-07-26T16:35:35.651Z,43.58
2018-07-26T16:38:02.686Z,43.72
2018-07-26T16:40:29.509Z,44.15
2018-07-26T16:42:56.268Z,43.72
2018-07-26T16:45:23.101Z,43.60
2018-07-26T16:47:49.784Z,42.55
2018-07-26T16:50:16.606Z,42.30
2018-07-26T16:52:43.351Z,41.98
2018-07-26T16:55:10.111Z,42.05
2018-07-26T16:57:37.047Z,42.25
2018-07-26T17:00:05.679Z,42.51
2018-07-26T17:02:32.436Z,42.75
2018-07-26T17:04:59.227Z,42.73
2018-07-26T17:07:25.998Z,42.62
2018-07-26T17:09:52.768Z,41.83
2018-07-26T17:12:19.570Z,41.40
2018-07-26T17:14:46.529Z,41.30
2018-07-26T17:17:13.255Z,40.70
2018-07-26T17:19:40.038Z,40.51
2018-07-26T17:22:07.153Z,40.56
2018-07-26T17:24:33.908Z,40.40
2018-07-26T17:27:00.818Z,39.62
2018-07-26T17:29:27.749Z,38.12
2018-07-26T17:31:54.609Z,36.50
2018-07-26T17:34:21.381Z,35.38
2018-07-26T17:36:48.219Z,34.35
2018-07-26T17:39:14.956Z,33.59
2018-07-26T17:41:41.808Z,33.08
2018-07-26T17:44:08.435Z,32.61
2018-07-26T17:46:35.277Z,32.18
2018-07-26T17:49:02.618Z,31.81
2018-07-26T17:51:29.772Z,31.60
2018-07-26T17:53:56.592Z,31.30
2018-07-26T17:56:23.539Z,30.92
2018-07-26T17:58:50.589Z,30.72
2018-07-26T18:01:17.387Z,30.68
2018-07-26T18:03:44.212Z,30.57
2018-07-26T18:06:11.014Z,30.33
2018-07-26T18:08:37.816Z,30.25
2018-07-26T18:11:04.644Z,30.07
2018-07-26T18:13:31.528Z,30.03
2018-07-26T18:15:58.285Z,30.03
2018-07-26T18:18:25.074Z,29.99
2018-07-26T18:20:51.814Z,29.94
2018-07-26T18:23:18.639Z,29.83
2018-07-26T18:25:45.376Z,29.72
2018-07-26T18:28:12.136Z,29.61
2018-07-26T18:30:38.903Z,29.50
2018-07-26T18:33:05.687Z,29.35
2018-07-26T18:35:32.445Z,29.26
2018-07-26T18:37:59.212Z,29.06
2018-07-26T18:40:26.208Z,28.88
2018-07-26T18:42:52.965Z,28.77
2018-07-26T18:45:21.166Z,28.70
2018-07-26T18:47:47.946Z,28.54
2018-07-26T18:50:14.727Z,28.44
2018-07-26T18:52:41.552Z,28.35
2018-07-26T18:55:09.480Z,28.27
2018-07-26T18:57:36.220Z,28.18
2018-07-26T19:00:04.376Z,28.18
2018-07-26T19:02:31.112Z,28.18
2018-07-26T19:04:57.876Z,28.17
2018-07-26T19:07:24.647Z,28.12
2018-07-26T19:09:51.964Z,28.00
2018-07-26T19:12:18.711Z,27.90
2018-07-26T19:14:45.548Z,27.91
2018-07-26T19:17:12.280Z,27.79
2018-07-26T19:19:39.064Z,27.76
2018-07-26T19:22:05.910Z,27.78
2018-07-26T19:24:32.667Z,27.78
2018-07-26T19:26:59.424Z,27.83
2018-07-26T19:29:26.409Z,27.76
2018-07-26T19:31:53.196Z,27.72
2018-07-26T19:34:19.955Z,27.69
2018-07-26T19:36:46.712Z,27.63
2018-07-26T19:39:13.468Z,27.54
2018-07-26T19:41:40.988Z,27.44
2018-07-26T19:44:07.730Z,27.36
2018-07-26T19:46:36.518Z,27.30
2018-07-26T19:49:03.468Z,27.24
2018-07-26T19:51:30.263Z,27.19
2018-07-26T19:53:57.016Z,27.15
2018-07-26T19:56:23.884Z,27.07
2018-07-26T19:58:50.632Z,27.04
2018-07-26T20:01:17.549Z,26.98
2018-07-26T20:03:45.178Z,26.97
2018-07-26T20:06:11.349Z,26.93
2018-07-26T20:08:38.364Z,26.92
2018-07-26T20:11:05.350Z,26.96
2018-07-26T20:13:32.051Z,26.97
2018-07-26T20:15:58.856Z,26.94
2018-07-26T20:18:25.634Z,26.89
2018-07-26T20:20:52.635Z,26.83
2018-07-26T20:23:19.404Z,26.81
2018-07-26T20:25:46.668Z,26.77
2018-07-26T20:28:13.965Z,26.70
2018-07-26T20:30:43.588Z,26.69
2018-07-26T20:33:10.387Z,26.66
2018-07-26T20:35:37.765Z,26.63
2018-07-26T20:38:05.156Z,26.56
2018-07-26T20:40:32.028Z,26.52
2018-07-26T20:42:59.076Z,26.48
2018-07-26T20:45:25.924Z,26.47
2018-07-26T20:47:53.359Z,26.51
2018-07-26T20:50:23.964Z,26.51
2018-07-26T20:52:51.885Z,26.50
2018-07-26T20:55:19.006Z,26.49
2018-07-26T20:57:45.853Z,26.41
2018-07-26T21:00:15.371Z,26.41
2018-07-26T21:02:42.938Z,26.40
2018-07-26T21:05:09.923Z,26.43
2018-07-26T21:07:36.859Z,26.40
2018-07-26T21:10:04.643Z,26.33
2018-07-26T21:12:31.381Z,26.25
2018-07-26T21:14:58.137Z,26.16
2018-07-26T21:17:24.864Z,26.15
2018-07-26T21:19:51.623Z,26.11
2018-07-26T21:22:18.388Z,26.09
2018-07-26T21:24:45.151Z,26.09
2018-07-26T21:27:11.884Z,26.07
2018-07-26T21:29:38.646Z,26.08
2018-07-26T21:32:05.481Z,26.08
2018-07-26T21:34:32.259Z,26.04
2018-07-26T21:36:59.375Z,26.00
2018-07-26T21:39:26.144Z,25.95
2018-07-26T21:41:52.890Z,25.94
2018-07-26T21:44:19.656Z,25.95
2018-07-26T21:46:46.396Z,25.93
2018-07-26T21:49:13.212Z,25.89
2018-07-26T21:51:39.923Z,25.85
2018-07-26T21:54:06.673Z,25.82
2018-07-26T21:56:33.448Z,25.80
2018-07-26T21:59:00.224Z,25.79
2018-07-26T22:01:26.997Z,25.73
2018-07-26T22:03:53.773Z,25.73
2018-07-26T22:06:20.555Z,25.64
2018-07-26T22:08:47.347Z,25.61
2018-07-26T22:11:14.051Z,25.64
2018-07-26T22:13:40.811Z,25.65
2018-07-26T22:16:07.699Z,25.69
2018-07-26T22:18:34.507Z,25.73
2018-07-26T22:21:02.141Z,25.73
2018-07-26T22:23:28.904Z,25.73
2018-07-26T22:25:55.677Z,25.58
2018-07-26T22:28:22.410Z,25.47
2018-07-26T22:30:49.247Z,25.37
2018-07-26T22:33:15.976Z,25.36
2018-07-26T22:35:43.188Z,25.34
2018-07-26T22:38:10.471Z,25.38
2018-07-26T22:40:37.208Z,25.40
2018-07-26T22:43:04.299Z,25.26
2018-07-26T22:45:31.039Z,25.20
2018-07-26T22:47:57.876Z,25.11
2018-07-26T22:50:24.608Z,25.00
2018-07-26T22:52:51.464Z,24.93
2018-07-26T22:55:18.207Z,24.75
2018-07-26T22:57:44.980Z,24.65
2018-07-26T23:00:11.766Z,24.64
2018-07-26T23:02:38.513Z,24.61
2018-07-26T23:05:05.311Z,24.56
2018-07-26T23:07:32.123Z,24.57
2018-07-26T23:09:58.880Z,24.47
2018-07-26T23:12:25.820Z,24.41
2018-07-26T23:14:52.565Z,24.43
2018-07-26T23:17:19.420Z,24.45
2018-07-26T23:19:46.214Z,24.48
2018-07-26T23:22:12.967Z,24.38
2018-07-26T23:24:39.743Z,24.37
2018-07-26T23:27:06.487Z,24.46
2018-07-26T23:29:33.271Z,24.38
2018-07-26T23:32:00.045Z,24.28
2018-07-26T23:34:26.817Z,24.25
2018-07-26T23:36:53.551Z,24.19
2018-07-26T23:39:20.307Z,24.18
2018-07-26T23:41:47.047Z,24.32
2018-07-26T23:44:13.816Z,24.35
2018-07-26T23:46:40.547Z,24.30
2018-07-26T23:49:07.311Z,24.31
2018-07-26T23:51:34.043Z,24.34
2018-07-26T23:54:01.628Z,24.29
2018-07-26T23:56:28.344Z,24.30
2018-07-26T23:58:55.736Z,24.27
